createdAt,value
2022-08-12T00:00:30.586Z,75.59
2022-08-12T00:02:04.218Z,75.01
2022-08-12T00:02:32.524Z,75.28
2022-08-12T00:03:30.641Z,75.01
2022-08-12T00:04:30.549Z,75.62
2022-08-12T00:05:30.647Z,75.32
2022-08-12T00:06:30.566Z,75.42
2022-08-12T00:07:30.516Z,75.82
2022-08-12T00:08:36.814Z,75.42
2022-08-12T00:09:31.506Z,75.42
2022-08-12T00:10:30.511Z,76.54
2022-08-12T00:11:30.523Z,75.62
2022-08-12T00:12:31.342Z,75.42
2022-08-12T00:13:30.458Z,76.64
2022-08-12T00:14:30.459Z,76.64
2022-08-12T00:15:30.444Z,76.43
2022-08-12T00:16:30.484Z,76.90
2022-08-12T00:17:30.469Z,76.60
2022-08-12T00:18:30.459Z,76.50
2022-08-12T00:19:30.425Z,76.80
2022-08-12T00:20:30.435Z,76.50
2022-08-12T00:21:30.406Z,76.20
2022-08-12T00:22:30.495Z,76.09
2022-08-12T00:23:30.386Z,75.93
2022-08-12T00:24:30.393Z,76.13
2022-08-12T00:25:55.777Z,75.73
2022-08-12T00:26:31.358Z,76.43
2022-08-12T00:27:43.978Z,76.43
2022-08-12T00:28:31.369Z,76.57
2022-08-12T00:29:30.352Z,76.17
2022-08-12T00:30:30.364Z,76.17
2022-08-12T00:31:30.357Z,76.37
2022-08-12T00:32:54.831Z,76.37
2022-08-12T00:33:38.537Z,77.08
2022-08-12T00:34:31.337Z,76.51
2022-08-12T00:35:34.259Z,77.38
2022-08-12T00:36:36.199Z,77.32
2022-08-12T00:37:31.278Z,77.42
2022-08-12T00:38:30.286Z,77.72
2022-08-12T00:39:30.293Z,77.72
2022-08-12T00:40:30.298Z,78.13
2022-08-12T00:41:30.258Z,77.72
2022-08-12T00:42:30.267Z,77.01
2022-08-12T00:43:30.267Z,77.42
2022-08-12T00:44:30.238Z,77.83
2022-08-12T00:45:30.247Z,78.13
2022-08-12T00:46:30.221Z,78.64
2022-08-12T00:47:30.231Z,78.44
2022-08-12T00:48:30.262Z,78.44
2022-08-12T00:49:30.216Z,78.53
2022-08-12T00:50:30.209Z,78.94
2022-08-12T00:51:30.163Z,78.53
2022-08-12T00:52:30.181Z,78.33
2022-08-12T00:53:30.156Z,77.76
2022-08-12T00:54:32.164Z,78.03
2022-08-12T00:55:30.134Z,77.86
2022-08-12T00:56:30.141Z,77.66
2022-08-12T00:57:30.121Z,77.66
2022-08-12T00:58:30.138Z,78.37
2022-08-12T00:59:30.109Z,78.78
2022-08-12T01:00:30.120Z,79.32
2022-08-12T01:01:30.165Z,80.10
2022-08-12T01:02:31.126Z,79.38
2022-08-12T01:03:30.092Z,79.52
2022-08-12T01:04:30.069Z,80.40
2022-08-12T01:05:30.076Z,80.30
2022-08-12T01:06:30.073Z,80.19
2022-08-12T01:07:30.073Z,80.40
2022-08-12T01:08:30.049Z,80.40
2022-08-12T01:09:30.068Z,79.93
2022-08-12T01:10:32.982Z,80.40
2022-08-12T01:11:30.023Z,80.74
2022-08-12T01:12:30.079Z,80.54
2022-08-12T01:13:30.030Z,79.72
2022-08-12T01:14:30.023Z,79.83
2022-08-12T01:15:30.011Z,79.72
2022-08-12T01:16:30.007Z,79.42
2022-08-12T01:17:29.986Z,79.66
2022-08-12T01:18:30.001Z,79.93
2022-08-12T01:19:30.006Z,79.72
2022-08-12T01:20:29.950Z,79.72
2022-08-12T01:21:29.938Z,80.37
2022-08-12T01:22:30.010Z,79.97
2022-08-12T01:23:29.921Z,80.17
2022-08-12T01:24:31.877Z,80.07
2022-08-12T01:25:29.931Z,80.41
2022-08-12T01:26:29.892Z,80.31
2022-08-12T01:27:29.901Z,79.80
2022-08-12T01:28:29.883Z,80.72
2022-08-12T01:29:32.981Z,80.92
2022-08-12T01:30:29.863Z,81.02
2022-08-12T01:31:29.858Z,81.06
2022-08-12T01:32:29.969Z,80.76
2022-08-12T01:33:29.851Z,81.46
2022-08-12T01:34:36.121Z,81.06
2022-08-12T01:35:30.850Z,80.96
2022-08-12T01:36:29.827Z,81.06
2022-08-12T01:37:29.822Z,81.37
2022-08-12T01:38:30.320Z,81.16
2022-08-12T01:39:29.874Z,80.85
2022-08-12T01:40:34.098Z,81.06
2022-08-12T01:41:30.801Z,81.06
2022-08-12T01:42:29.794Z,81.46
2022-08-12T01:43:29.791Z,81.37
2022-08-12T01:44:29.768Z,82.12
2022-08-12T02:02:35.634Z,82.82
2022-08-12T02:03:35.598Z,82.62
2022-08-12T02:04:35.594Z,82.56
2022-08-12T02:05:35.584Z,82.46
2022-08-12T02:06:35.611Z,83.07
2022-08-12T02:07:36.754Z,83.27
2022-08-12T02:08:36.726Z,83.58
2022-08-12T02:09:36.732Z,83.68
2022-08-12T02:10:49.191Z,84.66
2022-08-12T02:11:37.701Z,84.39
2022-08-12T02:12:36.766Z,85.00
2022-08-12T02:13:48.134Z,84.90
2022-08-12T02:14:37.783Z,85.51
2022-08-12T02:15:36.713Z,85.21
2022-08-12T02:16:36.746Z,85.31
2022-08-12T02:17:55.029Z,85.51
2022-08-12T02:19:02.568Z,85.61
2022-08-12T02:19:37.603Z,85.61
2022-08-12T02:20:51.902Z,86.02
2022-08-12T02:21:37.570Z,85.92
2022-08-12T02:22:36.600Z,85.31
2022-08-12T02:23:36.573Z,85.51
2022-08-12T02:24:36.576Z,83.89
2022-08-12T02:25:36.555Z,83.68
2022-08-12T02:26:36.574Z,83.58
2022-08-12T02:27:36.544Z,84.50
2022-08-12T02:28:36.526Z,84.70
2022-08-12T02:29:36.545Z,84.94
2022-08-12T02:30:42.212Z,85.75
2022-08-12T02:31:37.542Z,85.66
2022-08-12T02:32:36.499Z,85.75
2022-08-12T02:33:36.494Z,86.98
2022-08-12T02:34:36.525Z,86.37
2022-08-12T02:35:36.550Z,87.38
2022-08-12T02:36:36.509Z,87.18
2022-08-12T02:37:36.457Z,86.98
2022-08-12T02:38:36.455Z,86.27
2022-08-12T02:39:36.493Z,86.27
2022-08-12T02:40:36.452Z,85.82
2022-08-12T02:41:36.472Z,85.31
2022-08-12T02:42:36.427Z,85.35
2022-08-12T02:43:36.430Z,85.72
2022-08-12T02:44:36.407Z,84.80
2022-08-12T02:45:36.403Z,84.90
2022-08-12T02:46:36.417Z,85.21
2022-08-12T02:47:58.530Z,84.56
2022-08-12T02:48:37.379Z,84.50
2022-08-12T02:49:36.400Z,83.78
2022-08-12T02:50:36.383Z,83.78
2022-08-12T02:51:36.366Z,83.58
2022-08-12T02:52:36.355Z,83.78
2022-08-12T02:53:36.370Z,83.89
2022-08-12T02:54:36.376Z,84.64
2022-08-12T02:55:36.351Z,84.90
2022-08-12T02:56:37.260Z,84.43
2022-08-12T02:57:36.320Z,84.43
2022-08-12T02:58:36.359Z,84.43
2022-08-12T02:59:37.317Z,84.53
2022-08-12T03:00:36.318Z,86.27
2022-08-12T03:01:36.305Z,87.96
2022-08-12T03:02:37.274Z,87.90
2022-08-12T03:03:36.278Z,87.29
2022-08-12T03:04:40.080Z,87.59
2022-08-12T03:05:38.514Z,87.08
2022-08-12T03:06:37.250Z,87.38
2022-08-12T03:07:55.837Z,87.32
2022-08-12T03:08:37.234Z,86.71
2022-08-12T03:09:43.095Z,86.61
2022-08-12T03:10:37.949Z,86.71
2022-08-12T03:11:41.678Z,86.15
2022-08-12T03:12:40.073Z,86.35
2022-08-12T03:13:37.194Z,86.15
2022-08-12T03:14:36.205Z,86.45
2022-08-12T03:15:36.196Z,86.45
2022-08-12T03:16:36.926Z,87.12
2022-08-12T03:17:36.174Z,87.23
2022-08-12T03:18:36.155Z,87.59
2022-08-12T03:19:36.155Z,86.47
2022-08-12T03:20:37.161Z,86.53
2022-08-12T03:21:52.798Z,86.33
2022-08-12T03:22:37.138Z,86.57
2022-08-12T03:23:36.130Z,86.22
2022-08-12T03:24:36.147Z,86.47
2022-08-12T03:25:36.108Z,86.57
2022-08-12T03:26:36.164Z,86.77
2022-08-12T03:27:36.093Z,86.82
2022-08-12T03:28:36.092Z,87.43
2022-08-12T03:29:49.841Z,87.12
2022-08-12T03:30:37.068Z,86.47
2022-08-12T03:31:36.066Z,86.61
2022-08-12T03:32:37.060Z,86.41
2022-08-12T03:33:36.068Z,85.74
2022-08-12T03:34:36.062Z,86.55
2022-08-12T03:35:40.332Z,85.43
2022-08-12T03:36:37.754Z,86.39
2022-08-12T03:37:36.057Z,86.49
2022-08-12T03:38:36.020Z,86.24
2022-08-12T03:39:37.199Z,86.35
2022-08-12T03:40:35.991Z,86.55
2022-08-12T03:41:35.983Z,87.41
2022-08-12T03:42:36.364Z,87.57
2022-08-12T03:43:35.975Z,87.06
2022-08-12T03:44:35.980Z,86.65
2022-08-12T03:45:35.946Z,86.51
2022-08-12T04:01:40.641Z,87.24
2022-08-12T04:02:37.683Z,87.55
2022-08-12T04:03:38.825Z,87.45
2022-08-12T04:04:38.790Z,88.02
2022-08-12T04:05:55.781Z,88.02
2022-08-12T04:06:39.826Z,87.82
2022-08-12T04:07:38.781Z,88.93
2022-08-12T04:08:39.752Z,88.63
2022-08-12T04:09:38.771Z,88.32
2022-08-12T04:10:38.773Z,88.32
2022-08-12T04:11:46.921Z,88.32
2022-08-12T04:12:39.766Z,88.32
2022-08-12T04:13:38.741Z,88.53
2022-08-12T04:14:38.746Z,88.32
2022-08-12T04:15:38.720Z,88.53
2022-08-12T04:16:38.724Z,88.84
2022-08-12T04:17:38.724Z,88.59
2022-08-12T04:18:39.737Z,88.49
2022-08-12T04:19:38.734Z,88.28
2022-08-12T04:20:38.719Z,87.63
2022-08-12T04:21:38.741Z,87.32
2022-08-12T04:22:39.767Z,87.53
2022-08-12T04:23:39.453Z,87.43
2022-08-12T04:24:40.843Z,87.32
2022-08-12T04:25:38.689Z,87.23
2022-08-12T04:26:38.739Z,87.84
2022-08-12T04:27:38.645Z,87.43
2022-08-12T04:28:38.744Z,87.32
2022-08-12T04:30:30.734Z,86.41
2022-08-12T04:30:39.656Z,87.43
2022-08-12T04:31:38.628Z,86.30
2022-08-12T04:32:43.719Z,86.61
2022-08-12T04:33:40.653Z,87.43
2022-08-12T04:34:38.727Z,87.73
2022-08-12T04:35:38.735Z,87.32
2022-08-12T04:36:38.558Z,87.29
2022-08-12T04:37:58.724Z,86.94
2022-08-12T04:38:39.595Z,86.53
2022-08-12T04:39:38.592Z,85.03
2022-08-12T04:40:38.537Z,84.13
2022-08-12T04:41:38.520Z,82.12
2022-08-12T04:42:39.637Z,81.48
2022-08-12T04:43:53.749Z,80.08
2022-08-12T04:44:40.375Z,78.59
2022-08-12T04:45:38.510Z,77.20
2022-08-12T04:46:38.474Z,75.14
2022-08-12T04:47:38.563Z,73.39
2022-08-12T04:48:38.524Z,72.34
2022-08-12T04:49:38.506Z,71.40
2022-08-12T04:50:38.472Z,70.56
2022-08-12T04:51:38.482Z,69.92
2022-08-12T04:52:38.461Z,69.21
2022-08-12T04:53:38.462Z,69.01
2022-08-12T04:54:38.451Z,68.21
2022-08-12T04:55:38.408Z,69.11
2022-08-12T04:56:38.420Z,68.17
2022-08-12T04:57:38.398Z,67.74
2022-08-12T04:58:38.396Z,67.03
2022-08-12T04:59:47.311Z,65.76
2022-08-12T05:00:39.413Z,65.66
2022-08-12T05:01:38.377Z,64.82
2022-08-12T05:02:38.441Z,64.42
2022-08-12T05:03:46.412Z,64.69
2022-08-12T05:04:39.356Z,64.46
2022-08-12T05:05:38.333Z,64.13
2022-08-12T05:06:38.323Z,62.69
2022-08-12T05:07:47.832Z,62.36
2022-08-12T05:08:39.325Z,61.96
2022-08-12T05:09:59.932Z,60.80
2022-08-12T05:10:39.284Z,60.39
2022-08-12T05:11:38.272Z,60.69
2022-08-12T05:12:39.695Z,61.96
2022-08-12T05:13:38.270Z,62.33
2022-08-12T05:14:38.282Z,62.52
2022-08-12T05:15:38.263Z,64.12
2022-08-12T05:16:39.264Z,64.59
2022-08-12T05:17:38.253Z,64.39
2022-08-12T05:18:39.331Z,64.32
2022-08-12T05:19:38.211Z,66.27
2022-08-12T05:20:38.204Z,65.83
2022-08-12T05:21:38.243Z,65.86
2022-08-12T05:22:38.385Z,66.47
2022-08-12T05:23:38.233Z,66.97
2022-08-12T05:24:38.182Z,64.99
2022-08-12T05:25:38.174Z,64.53
2022-08-12T05:26:38.167Z,62.53
2022-08-12T05:27:38.169Z,61.17
2022-08-12T05:28:39.169Z,60.44
2022-08-12T05:30:05.568Z,60.27
2022-08-12T05:30:39.128Z,59.70
2022-08-12T05:31:42.402Z,59.08
2022-08-12T05:32:39.280Z,58.37
2022-08-12T05:33:38.129Z,58.25
2022-08-12T05:34:38.097Z,58.55
2022-08-12T05:35:38.112Z,57.98
2022-08-12T05:36:38.153Z,58.81
2022-08-12T05:37:38.095Z,60.44
2022-08-12T05:38:38.097Z,62.13
2022-08-12T05:39:38.106Z,63.62
2022-08-12T05:40:38.057Z,64.46
2022-08-12T05:41:38.042Z,64.16
2022-08-12T05:42:38.066Z,64.20
2022-08-12T05:43:38.022Z,63.23
2022-08-12T05:44:38.054Z,61.52
2022-08-12T05:45:42.840Z,61.90
2022-08-12T05:46:40.023Z,62.16
2022-08-12T05:47:53.839Z,63.70
2022-08-12T05:48:38.997Z,64.30
2022-08-12T05:49:38.020Z,64.60
2022-08-12T05:50:37.991Z,64.24
2022-08-12T05:51:39.667Z,62.67
2022-08-12T05:52:37.982Z,62.44
2022-08-12T05:53:37.960Z,62.70
2022-08-12T05:54:56.527Z,62.83
2022-08-12T05:55:39.954Z,63.31
2022-08-12T05:56:37.953Z,63.03
2022-08-12T05:57:37.950Z,63.46
2022-08-12T05:58:37.960Z,63.03
2022-08-12T05:59:37.955Z,63.00
2022-08-12T06:00:37.968Z,62.24
2022-08-12T06:02:12.058Z,60.15
2022-08-12T06:02:39.080Z,60.51
2022-08-12T06:03:37.980Z,60.53
2022-08-12T06:04:37.901Z,60.38
2022-08-12T06:05:52.586Z,58.82
2022-08-12T06:06:39.658Z,58.72
2022-08-12T06:08:02.215Z,59.45
2022-08-12T06:08:38.850Z,60.28
2022-08-12T06:09:37.853Z,60.11
2022-08-12T06:10:37.892Z,60.81
2022-08-12T06:11:37.907Z,60.38
2022-08-12T06:12:37.846Z,60.28
2022-08-12T06:13:54.028Z,61.01
2022-08-12T06:14:39.477Z,61.88
2022-08-12T06:15:37.909Z,59.12
2022-08-12T06:16:37.793Z,58.44
2022-08-12T06:17:37.830Z,57.71
2022-08-12T06:18:37.800Z,57.68
2022-08-12T06:20:27.772Z,56.59
2022-08-12T06:20:38.783Z,57.28
2022-08-12T06:21:37.778Z,56.36
2022-08-12T06:22:37.768Z,56.01
2022-08-12T06:23:42.297Z,55.05
2022-08-12T06:24:39.739Z,53.96
2022-08-12T06:25:37.740Z,53.44
2022-08-12T06:26:37.731Z,53.24
2022-08-12T06:27:37.757Z,52.26
2022-08-12T06:28:38.729Z,51.84
2022-08-12T06:30:09.040Z,51.95
2022-08-12T06:30:39.720Z,52.99
2022-08-12T06:31:38.712Z,52.72
2022-08-12T06:32:42.763Z,53.99
2022-08-12T06:33:55.389Z,54.81
2022-08-12T06:35:25.790Z,53.53
2022-08-12T06:35:48.182Z,52.09
2022-08-12T06:36:38.741Z,51.70
2022-08-12T06:37:37.649Z,51.82
2022-08-12T06:38:37.633Z,51.95
2022-08-12T06:39:37.710Z,50.11
2022-08-12T06:40:37.619Z,49.93
2022-08-12T06:41:37.622Z,54.01
2022-08-12T06:42:37.626Z,54.08
2022-08-12T06:44:06.166Z,52.84
2022-08-12T06:44:38.619Z,53.52
2022-08-12T06:45:45.383Z,54.41
2022-08-12T06:46:38.595Z,53.99
2022-08-12T06:47:37.607Z,53.83
2022-08-12T06:48:37.590Z,52.37
2022-08-12T06:49:37.609Z,51.72
2022-08-12T06:50:40.027Z,52.42
2022-08-12T06:51:38.633Z,51.62
2022-08-12T06:52:37.552Z,50.98
2022-08-12T06:53:37.554Z,50.35
2022-08-12T06:54:37.569Z,50.05
2022-08-12T06:55:37.572Z,51.67
2022-08-12T06:57:03.107Z,50.01
2022-08-12T06:58:06.255Z,49.81
2022-08-12T06:58:38.509Z,49.91
2022-08-12T06:59:37.519Z,51.97
2022-08-12T07:00:37.528Z,52.84
2022-08-12T07:01:37.489Z,52.27
2022-08-12T07:02:37.541Z,52.27
2022-08-12T07:03:37.475Z,51.62
2022-08-12T07:04:38.787Z,51.20
2022-08-12T07:05:37.470Z,50.52
2022-08-12T07:06:37.473Z,50.43
2022-08-12T07:07:37.449Z,49.86
2022-08-12T07:08:37.451Z,48.08
2022-08-12T07:10:02.816Z,48.15
2022-08-12T07:10:38.414Z,47.53
2022-08-12T07:11:37.402Z,46.89
2022-08-12T07:12:37.557Z,46.04
2022-08-12T07:13:37.440Z,44.79
2022-08-12T07:14:41.027Z,43.37
2022-08-12T07:15:38.372Z,42.32
2022-08-12T07:16:37.374Z,42.34
2022-08-12T07:17:38.183Z,41.93
2022-08-12T07:18:37.358Z,42.47
2022-08-12T07:19:45.091Z,42.07
2022-08-12T07:20:52.286Z,42.58
2022-08-12T07:21:59.552Z,42.42
2022-08-12T07:22:38.385Z,44.06
2022-08-12T07:23:37.350Z,45.43
2022-08-12T07:24:37.320Z,46.17
2022-08-12T07:25:40.940Z,47.23
2022-08-12T07:26:37.318Z,47.43
2022-08-12T07:27:37.307Z,47.95
2022-08-12T07:28:37.293Z,48.25
2022-08-12T07:29:59.473Z,48.52
2022-08-12T07:30:38.320Z,47.90
2022-08-12T07:31:37.309Z,47.68
2022-08-12T07:32:37.330Z,47.49
2022-08-12T07:33:37.973Z,47.58
2022-08-12T07:34:37.260Z,47.04
2022-08-12T07:35:37.296Z,45.81
2022-08-12T07:36:37.243Z,45.29
2022-08-12T07:37:37.214Z,45.35
2022-08-12T07:38:37.220Z,44.04
2022-08-12T07:39:50.866Z,44.80
2022-08-12T07:40:38.238Z,45.19
2022-08-12T07:41:37.196Z,45.27
2022-08-12T07:42:37.173Z,45.31
2022-08-12T07:43:39.374Z,46.30
2022-08-12T07:44:37.216Z,45.29
2022-08-12T07:45:37.200Z,46.52
2022-08-12T07:46:37.168Z,46.27
2022-08-12T07:47:37.152Z,45.41
2022-08-12T07:48:37.139Z,45.05
2022-08-12T07:50:03.201Z,44.12
2022-08-12T07:50:38.162Z,44.16
2022-08-12T07:51:37.128Z,45.51
2022-08-12T07:52:37.135Z,45.79
2022-08-12T07:53:47.677Z,45.35
2022-08-12T07:54:39.125Z,45.35
2022-08-12T07:55:37.112Z,45.59
2022-08-12T07:56:37.109Z,45.79
2022-08-12T07:57:37.096Z,45.29
2022-08-12T07:58:37.109Z,44.64
2022-08-12T07:59:37.990Z,44.97
2022-08-12T08:00:37.079Z,44.91
2022-08-12T08:01:38.113Z,44.49
2022-08-12T08:02:38.674Z,44.34
2022-08-12T08:03:37.028Z,45.57
2022-08-12T08:04:38.849Z,44.85
2022-08-12T08:05:37.025Z,44.14
2022-08-12T08:06:37.098Z,43.73
2022-08-12T08:07:38.158Z,44.32
2022-08-12T08:08:37.012Z,44.16
2022-08-12T08:09:37.001Z,44.87
2022-08-12T08:10:37.044Z,44.68
2022-08-12T08:11:37.017Z,44.22
2022-08-12T08:12:37.000Z,44.34
2022-08-12T08:13:36.971Z,43.77
2022-08-12T08:14:36.964Z,44.28
2022-08-12T08:16:02.854Z,44.18
2022-08-12T08:16:38.962Z,43.13
2022-08-12T08:17:36.963Z,42.34
2022-08-12T08:18:37.550Z,42.77
2022-08-12T08:20:08.849Z,41.27
2022-08-12T08:20:36.942Z,40.48
2022-08-12T08:21:36.914Z,41.09
2022-08-12T08:22:41.741Z,40.37
2022-08-12T08:23:38.427Z,39.17
2022-08-12T08:24:36.902Z,38.74
2022-08-12T08:25:37.934Z,38.40
2022-08-12T08:26:37.888Z,39.28
2022-08-12T08:27:36.874Z,39.47
2022-08-12T08:28:36.966Z,40.78
2022-08-12T08:29:36.877Z,39.84
2022-08-12T08:30:36.905Z,39.32
2022-08-12T08:31:37.517Z,38.93
2022-08-12T08:32:36.861Z,38.79
2022-08-12T08:34:05.071Z,38.51
2022-08-12T08:34:54.286Z,39.03
2022-08-12T08:35:47.620Z,39.62
2022-08-12T08:36:37.835Z,39.01
2022-08-12T08:37:37.743Z,39.23
2022-08-12T08:38:36.819Z,38.79
2022-08-12T08:39:36.839Z,39.28
2022-08-12T08:40:36.783Z,39.09
2022-08-12T08:42:16.166Z,39.15
2022-08-12T08:42:37.762Z,37.99
2022-08-12T08:43:44.547Z,36.70
2022-08-12T08:44:37.797Z,36.58
2022-08-12T08:45:36.826Z,36.58
2022-08-12T08:46:36.756Z,36.34
2022-08-12T08:47:36.737Z,38.15
2022-08-12T08:48:36.745Z,38.15
2022-08-12T08:49:37.310Z,37.16
2022-08-12T08:50:36.734Z,38.07
2022-08-12T08:51:37.537Z,38.03
2022-08-12T08:52:39.054Z,37.65
2022-08-12T08:53:36.707Z,39.07
2022-08-12T08:54:36.683Z,38.15
2022-08-12T08:56:03.157Z,39.17
2022-08-12T08:56:38.725Z,38.87
2022-08-12T08:57:42.859Z,39.31
2022-08-12T08:58:37.672Z,38.95
2022-08-12T08:59:36.664Z,37.52
2022-08-12T09:00:36.662Z,37.32
2022-08-12T09:01:37.985Z,38.49
2022-08-12T09:02:36.697Z,38.97
2022-08-12T09:05:08.253Z,38.20
2022-08-12T09:05:12.547Z,38.93
2022-08-12T09:06:01.764Z,38.54
2022-08-12T09:06:38.022Z,38.18
2022-08-12T09:07:51.305Z,39.20
2022-08-12T09:08:37.642Z,38.59
2022-08-12T09:10:37.601Z,38.81
2022-08-12T09:12:11.517Z,38.98
2022-08-12T09:12:37.575Z,38.73
2022-08-12T09:14:12.960Z,37.32
2022-08-12T09:14:39.377Z,37.49
2022-08-12T09:15:36.559Z,37.53
2022-08-12T09:16:41.307Z,38.01
2022-08-12T09:17:42.873Z,36.96
2022-08-12T09:18:37.600Z,37.96
2022-08-12T09:19:36.526Z,38.26
2022-08-12T09:20:36.531Z,38.24
2022-08-12T09:21:54.899Z,37.93
2022-08-12T09:22:37.490Z,37.71
2022-08-12T09:24:00.173Z,38.12
2022-08-12T09:24:37.568Z,37.22
2022-08-12T09:25:36.495Z,37.10
2022-08-12T09:26:45.975Z,36.87
2022-08-12T09:27:58.021Z,36.40
2022-08-12T09:28:37.813Z,37.61
2022-08-12T09:30:10.418Z,36.95
2022-08-12T09:30:41.220Z,37.20
2022-08-12T09:32:04.137Z,37.83
2022-08-12T09:33:05.288Z,37.10
2022-08-12T09:34:28.905Z,37.49
2022-08-12T09:34:42.513Z,37.16
2022-08-12T09:35:42.747Z,36.30
2022-08-12T09:36:57.991Z,38.30
2022-08-12T09:37:57.989Z,37.53
2022-08-12T09:38:37.389Z,38.67
2022-08-12T09:40:05.067Z,39.32
2022-08-12T09:42:07.686Z,39.04
2022-08-12T09:42:32.376Z,39.20
2022-08-12T09:42:43.318Z,38.87
2022-08-12T09:43:37.445Z,39.26
2022-08-12T09:44:40.026Z,39.12
2022-08-12T09:46:11.587Z,38.81
2022-08-12T09:46:37.378Z,38.42
2022-08-12T09:47:36.323Z,37.95
2022-08-12T09:48:36.657Z,38.26
2022-08-12T09:49:42.000Z,39.34
2022-08-12T09:50:38.352Z,38.93
2022-08-12T09:51:37.259Z,37.26
2022-08-12T09:52:36.307Z,37.81
2022-08-12T09:54:34.773Z,38.30
2022-08-12T09:54:37.407Z,36.86
2022-08-12T09:56:07.183Z,37.76
2022-08-12T09:56:59.942Z,38.59
2022-08-12T09:58:46.418Z,38.31
2022-08-12T09:58:57.376Z,39.20
2022-08-12T10:00:15.704Z,38.79
2022-08-12T10:00:48.474Z,38.06
2022-08-12T10:02:42.577Z,37.85
2022-08-12T10:02:44.866Z,38.34
2022-08-12T10:03:37.297Z,37.73
2022-08-12T10:04:37.315Z,37.24
2022-08-12T10:06:19.191Z,37.14
2022-08-12T10:06:54.814Z,36.53
2022-08-12T10:07:39.699Z,37.07
2022-08-12T10:08:36.185Z,36.88
2022-08-12T10:09:58.529Z,37.08
2022-08-12T10:10:42.003Z,37.08
2022-08-12T10:12:05.545Z,36.69
2022-08-12T10:12:37.136Z,36.80
2022-08-12T10:13:41.144Z,37.71
2022-08-12T10:14:37.150Z,37.10
2022-08-12T10:16:01.765Z,37.49
2022-08-12T10:16:39.629Z,37.10
2022-08-12T10:18:06.169Z,36.32
2022-08-12T10:18:37.103Z,37.01
2022-08-12T10:19:37.169Z,36.61
2022-08-12T10:20:36.246Z,37.01
2022-08-12T10:21:37.592Z,36.88
2022-08-12T10:22:40.193Z,36.67
2022-08-12T10:23:40.775Z,36.51
2022-08-12T10:24:37.082Z,37.10
2022-08-12T10:26:34.220Z,37.26
2022-08-12T10:26:39.332Z,36.96
2022-08-12T10:28:00.789Z,37.85
2022-08-12T10:28:38.407Z,38.43
2022-08-12T10:30:38.975Z,37.70
2022-08-12T10:30:39.461Z,38.00
2022-08-12T10:32:15.697Z,38.61
2022-08-12T10:32:43.265Z,37.98
2022-08-12T10:33:50.678Z,38.34
2022-08-12T10:34:37.037Z,36.46
2022-08-12T10:35:38.212Z,37.34
2022-08-12T10:36:40.870Z,37.01
2022-08-12T10:38:37.641Z,36.71
2022-08-12T10:38:41.351Z,36.41
2022-08-12T10:40:01.879Z,35.92
2022-08-12T10:40:37.811Z,35.78
2022-08-12T10:41:57.674Z,35.28
2022-08-12T10:42:36.931Z,35.47
2022-08-12T10:43:55.559Z,35.30
2022-08-12T10:44:36.923Z,35.20
2022-08-12T10:45:38.476Z,35.51
2022-08-12T10:46:35.914Z,35.72
2022-08-12T10:48:15.973Z,36.25
2022-08-12T10:48:36.925Z,36.99
2022-08-12T10:50:03.226Z,37.15
2022-08-12T10:50:56.655Z,36.05
2022-08-12T10:51:51.811Z,36.80
2022-08-12T10:52:38.164Z,37.49
2022-08-12T10:53:45.068Z,36.84
2022-08-12T10:54:36.951Z,36.51
2022-08-12T10:55:35.861Z,35.30
2022-08-12T10:56:35.829Z,35.88
2022-08-12T10:58:15.434Z,36.46
2022-08-12T10:58:37.497Z,35.67
2022-08-12T11:00:29.713Z,35.67
2022-08-12T11:00:45.261Z,35.21
2022-08-12T11:04:19.351Z,35.92
2022-08-12T11:04:25.217Z,36.63
2022-08-12T11:04:34.324Z,35.69
2022-08-12T11:04:44.789Z,35.67
2022-08-12T11:07:07.467Z,35.38
2022-08-12T11:07:07.902Z,36.63
2022-08-12T11:08:35.853Z,36.41
2022-08-12T11:08:42.789Z,36.11
2022-08-12T11:09:41.487Z,37.14
2022-08-12T11:10:36.757Z,36.96
2022-08-12T11:12:36.833Z,36.13
2022-08-12T11:12:59.837Z,36.11
2022-08-12T11:13:46.350Z,35.82
2022-08-12T11:14:50.374Z,36.20
2022-08-12T11:16:18.739Z,36.43
2022-08-12T11:16:37.591Z,37.17
2022-08-12T11:17:53.902Z,37.34
2022-08-12T11:18:36.683Z,36.92
2022-08-12T11:19:35.723Z,35.11
2022-08-12T11:20:35.689Z,36.18
2022-08-12T11:21:56.301Z,35.39
2022-08-12T11:22:37.430Z,36.11
2022-08-12T11:23:37.451Z,35.80
2022-08-12T11:24:35.639Z,35.20
2022-08-12T11:25:55.892Z,35.36
2022-08-12T11:26:36.646Z,36.68
2022-08-12T11:27:35.681Z,35.68
2022-08-12T11:28:37.432Z,35.76
2022-08-12T11:30:01.817Z,35.94
2022-08-12T11:30:36.640Z,37.07
2022-08-12T11:31:40.869Z,36.86
2022-08-12T11:32:38.477Z,36.57
2022-08-12T11:34:04.453Z,37.14
2022-08-12T11:34:53.452Z,36.02
2022-08-12T11:35:37.041Z,36.82
2022-08-12T11:36:39.375Z,35.84
2022-08-12T11:37:57.646Z,35.64
2022-08-12T11:38:36.520Z,35.74
2022-08-12T11:40:37.579Z,36.02
2022-08-12T11:41:36.499Z,35.72
2022-08-12T11:42:35.733Z,36.53
2022-08-12T11:43:57.985Z,36.46
2022-08-12T11:44:43.157Z,36.45
2022-08-12T11:45:38.962Z,36.68
2022-08-12T11:46:35.485Z,36.25
2022-08-12T11:47:35.471Z,35.63
2022-08-12T11:48:50.936Z,35.61
2022-08-12T11:49:36.490Z,35.49
2022-08-12T11:50:35.429Z,35.78
2022-08-12T11:51:39.768Z,35.30
2022-08-12T11:52:55.958Z,35.39
2022-08-12T11:53:59.346Z,35.49
2022-08-12T11:54:36.412Z,36.10
2022-08-12T11:55:35.405Z,37.10
2022-08-12T11:56:38.784Z,37.10
2022-08-12T11:58:17.294Z,35.82
2022-08-12T12:00:15.254Z,35.33
2022-08-12T12:02:02.691Z,36.04
2022-08-12T12:02:36.499Z,35.82
2022-08-12T12:03:44.131Z,36.33
2022-08-12T12:04:36.358Z,37.26
2022-08-12T12:05:41.928Z,36.92
2022-08-12T12:06:36.345Z,37.22
2022-08-12T12:08:38.743Z,37.04
2022-08-12T12:08:42.690Z,36.45
2022-08-12T12:09:51.902Z,36.72
2022-08-12T12:10:36.299Z,36.84
2022-08-12T12:11:48.621Z,36.96
2022-08-12T12:12:36.352Z,37.34
2022-08-12T12:14:06.384Z,36.66
2022-08-12T12:14:38.217Z,37.34
2022-08-12T12:15:40.810Z,36.90
2022-08-12T12:16:39.591Z,36.20
2022-08-12T12:17:38.504Z,36.59
2022-08-12T12:18:35.244Z,35.49
2022-08-12T12:19:45.186Z,35.69
2022-08-12T12:20:36.325Z,36.00
2022-08-12T12:21:48.603Z,36.80
2022-08-12T12:22:37.120Z,36.88
2022-08-12T12:23:36.480Z,35.78
2022-08-12T12:24:36.092Z,35.88
2022-08-12T12:25:59.514Z,36.51
2022-08-12T12:26:38.402Z,36.40
2022-08-12T12:27:42.273Z,36.28
2022-08-12T12:28:39.476Z,37.49
2022-08-12T12:30:13.836Z,36.88
2022-08-12T12:30:36.190Z,37.05
2022-08-12T12:32:10.164Z,36.07
2022-08-12T12:32:36.175Z,36.49
2022-08-12T12:33:56.876Z,38.32
2022-08-12T12:34:36.177Z,38.71
2022-08-12T12:36:16.556Z,37.53
2022-08-12T12:36:36.164Z,36.94
2022-08-12T12:38:04.710Z,37.35
2022-08-12T12:38:36.122Z,37.78
2022-08-12T12:39:54.751Z,38.20
2022-08-12T12:40:39.546Z,37.17
2022-08-12T12:42:42.587Z,37.35
2022-08-12T12:42:42.866Z,37.26
2022-08-12T12:43:43.488Z,37.07
2022-08-12T12:44:38.701Z,37.98
2022-08-12T12:45:36.119Z,37.60
2022-08-12T12:46:35.070Z,38.47
2022-08-12T12:47:37.194Z,36.88
2022-08-12T12:48:35.205Z,36.74
2022-08-12T12:49:35.074Z,36.66
2022-08-12T12:50:42.429Z,36.38
2022-08-12T12:52:13.876Z,37.51
2022-08-12T12:52:36.085Z,37.09
2022-08-12T12:54:05.862Z,37.17
2022-08-12T12:54:36.102Z,37.26
2022-08-12T12:55:36.069Z,37.24
2022-08-12T12:56:35.711Z,36.04
2022-08-12T12:57:59.447Z,37.04
2022-08-12T12:58:36.047Z,36.61
2022-08-12T12:59:56.936Z,37.10
2022-08-12T13:00:36.041Z,36.33
2022-08-12T13:01:41.707Z,35.53
2022-08-12T13:02:36.979Z,36.23
2022-08-12T13:03:35.444Z,35.56
2022-08-12T13:04:37.496Z,35.44
2022-08-12T13:05:42.506Z,35.31
2022-08-12T13:06:35.940Z,35.10
2022-08-12T13:07:54.401Z,34.20
2022-08-12T13:08:36.152Z,35.10
2022-08-12T13:09:36.504Z,33.41
2022-08-12T13:10:36.391Z,33.92
2022-08-12T13:11:41.471Z,33.70
2022-08-12T13:12:36.571Z,34.31
2022-08-12T13:14:10.621Z,35.82
2022-08-12T13:14:39.884Z,35.25
2022-08-12T13:15:43.407Z,36.17
2022-08-12T13:16:36.364Z,36.25
2022-08-12T13:18:02.126Z,35.76
2022-08-12T13:18:35.899Z,35.88
2022-08-12T13:19:38.582Z,35.66
2022-08-12T13:20:38.445Z,35.56
2022-08-12T13:21:42.828Z,35.27
2022-08-12T13:22:35.903Z,35.94
2022-08-12T13:23:36.046Z,35.43
2022-08-12T13:24:35.501Z,34.13
2022-08-12T13:25:34.898Z,35.30
2022-08-12T13:26:34.841Z,34.01
2022-08-12T13:27:36.410Z,33.70
2022-08-12T13:28:34.794Z,34.31